createdAt,value
2022-09-26T00:01:21.453Z,23.87
2022-09-26T00:03:51.864Z,23.82
2022-09-26T00:06:20.043Z,23.85
2022-09-26T00:08:48.933Z,23.88
2022-09-26T00:11:19.732Z,23.91
2022-09-26T00:13:47.182Z,23.97
2022-09-26T00:16:15.729Z,24.04
2022-09-26T00:18:43.070Z,24.03
2022-09-26T00:21:14.822Z,24.02
2022-09-26T00:23:42.588Z,24.03
2022-09-26T00:26:10.776Z,24.02
2022-09-26T00:28:38.188Z,24.01
2022-09-26T00:31:07.226Z,23.98
2022-09-26T00:33:34.382Z,23.89
2022-09-26T00:36:01.647Z,23.82
2022-09-26T00:38:28.671Z,23.74
2022-09-26T00:40:55.880Z,23.71
2022-09-26T00:43:46.631Z,23.71
2022-09-26T00:46:13.557Z,23.71
2022-09-26T00:48:42.201Z,23.70
2022-09-26T00:51:10.201Z,23.69
2022-09-26T00:53:42.684Z,23.72
2022-09-26T00:56:16.891Z,23.76
2022-09-26T00:58:50.224Z,23.79
2022-09-26T01:01:18.601Z,23.80
2022-09-26T01:03:48.653Z,23.79
2022-09-26T01:06:16.324Z,23.78
2022-09-26T01:08:50.388Z,23.76
2022-09-26T01:11:17.782Z,23.75
2022-09-26T01:13:45.492Z,23.80
2022-09-26T01:16:12.591Z,23.87
2022-09-26T01:18:40.062Z,23.93
2022-09-26T01:21:35.389Z,24.01
2022-09-26T01:24:35.983Z,24.04
2022-09-26T01:27:24.658Z,24.08
2022-09-26T01:30:11.435Z,24.04
2022-09-26T01:33:02.162Z,23.97
2022-09-26T01:35:53.832Z,23.93
2022-09-26T01:38:30.499Z,23.87
2022-09-26T01:41:18.887Z,23.86
2022-09-26T01:43:46.071Z,23.85
2022-09-26T01:46:41.727Z,23.85
2022-09-26T01:49:37.800Z,23.83
2022-09-26T01:52:24.949Z,23.87
2022-09-26T01:54:57.228Z,23.93
2022-09-26T01:57:31.176Z,23.92
2022-09-26T02:00:02.437Z,23.90
2022-09-26T02:02:36.428Z,23.84
2022-09-26T02:05:25.434Z,23.87
2022-09-26T02:08:17.901Z,23.94
2022-09-26T02:10:49.745Z,23.94
2022-09-26T02:13:39.488Z,23.94
2022-09-26T02:16:10.134Z,23.97
2022-09-26T02:19:00.500Z,24.01
2022-09-26T02:21:27.647Z,24.05
2022-09-26T02:23:55.231Z,24.08
2022-09-26T02:26:23.661Z,24.05
2022-09-26T02:28:51.108Z,23.97
2022-09-26T02:31:22.986Z,23.91
2022-09-26T02:33:51.473Z,23.87
2022-09-26T02:36:22.507Z,23.75
2022-09-26T02:38:50.025Z,23.75
2022-09-26T02:41:35.401Z,23.79
2022-09-26T02:44:02.391Z,23.78
2022-09-26T02:46:41.387Z,23.81
2022-09-26T02:49:26.969Z,23.85
2022-09-26T02:51:59.804Z,23.90
2022-09-26T02:54:45.216Z,23.90
2022-09-26T02:57:26.954Z,23.87
2022-09-26T03:00:19.334Z,23.89
2022-09-26T03:03:19.999Z,23.88
2022-09-26T03:05:49.488Z,23.90
2022-09-26T03:08:20.866Z,23.84
2022-09-26T03:10:49.755Z,23.78
2022-09-26T03:13:18.797Z,23.75
2022-09-26T03:15:53.915Z,23.72
2022-09-26T03:18:24.922Z,23.71
2022-09-26T03:20:54.928Z,23.70
2022-09-26T03:23:26.706Z,23.74
2022-09-26T03:26:12.087Z,23.81
2022-09-26T03:28:39.120Z,23.84
2022-09-26T03:31:07.565Z,23.81
2022-09-26T03:33:34.631Z,23.75
2022-09-26T03:36:06.648Z,23.76
2022-09-26T03:38:33.632Z,23.78
2022-09-26T03:41:00.793Z,23.80
2022-09-26T03:43:28.050Z,23.79
2022-09-26T03:45:55.429Z,23.78
2022-09-26T03:48:22.461Z,23.75
2022-09-26T03:50:49.553Z,23.71
2022-09-26T03:53:16.593Z,23.69
2022-09-26T03:55:43.533Z,23.62
2022-09-26T03:58:10.660Z,23.55
2022-09-26T04:00:39.656Z,23.48
2022-09-26T04:03:06.918Z,23.44
2022-09-26T04:05:33.978Z,23.41
2022-09-26T04:08:05.981Z,23.35
2022-09-26T04:10:33.510Z,23.34
2022-09-26T04:13:00.576Z,23.34
2022-09-26T04:15:28.810Z,23.37
2022-09-26T04:17:56.032Z,23.39
2022-09-26T04:20:23.019Z,23.38
2022-09-26T04:22:50.003Z,23.40
2022-09-26T04:25:17.055Z,23.43
2022-09-26T04:27:44.065Z,23.45
2022-09-26T04:30:12.521Z,23.53
2022-09-26T04:32:39.510Z,23.56
2022-09-26T04:35:06.990Z,23.58
2022-09-26T04:37:37.311Z,23.63
2022-09-26T04:40:05.036Z,23.65
2022-09-26T04:42:37.244Z,23.70
2022-09-26T04:45:05.341Z,23.77
2022-09-26T04:47:32.833Z,23.79
2022-09-26T04:49:59.946Z,23.84
2022-09-26T04:52:26.975Z,23.89
2022-09-26T04:54:53.996Z,23.91
2022-09-26T04:57:21.367Z,23.88
2022-09-26T04:59:48.353Z,23.85
2022-09-26T05:02:15.374Z,23.81
2022-09-26T05:04:42.425Z,23.77
2022-09-26T05:07:09.387Z,23.70
2022-09-26T05:09:36.545Z,23.62
2022-09-26T05:12:03.873Z,23.58
2022-09-26T05:14:30.861Z,23.51
2022-09-26T05:16:57.826Z,23.52
2022-09-26T05:19:24.887Z,23.50
2022-09-26T05:21:51.836Z,23.51
2022-09-26T05:24:37.433Z,23.49
2022-09-26T05:27:07.196Z,23.46
2022-09-26T05:29:34.251Z,23.35
2022-09-26T05:32:01.795Z,23.29
2022-09-26T05:34:28.918Z,23.18
2022-09-26T05:36:56.790Z,23.22
2022-09-26T05:39:42.839Z,23.28
2022-09-26T05:42:09.996Z,23.24
2022-09-26T05:44:36.943Z,23.29
2022-09-26T05:47:04.102Z,23.39
2022-09-26T05:49:33.006Z,23.31
2022-09-26T05:52:00.143Z,23.23
2022-09-26T05:54:27.938Z,23.23
2022-09-26T05:56:55.066Z,23.25
2022-09-26T05:59:22.316Z,23.31
2022-09-26T06:01:49.372Z,23.37
2022-09-26T06:04:16.440Z,23.40
2022-09-26T06:06:44.508Z,23.40
2022-09-26T06:09:11.639Z,23.43
2022-09-26T06:11:38.701Z,23.48
2022-09-26T06:14:07.114Z,23.51
2022-09-26T06:16:34.634Z,23.55
2022-09-26T06:19:02.852Z,23.63
2022-09-26T06:21:30.154Z,23.70
2022-09-26T06:23:57.256Z,23.77
2022-09-26T06:26:26.404Z,23.80
2022-09-26T06:29:00.975Z,23.85
2022-09-26T06:31:29.014Z,23.84
2022-09-26T06:33:56.709Z,23.87
2022-09-26T06:36:24.187Z,23.90
2022-09-26T06:38:51.768Z,23.94
2022-09-26T06:41:20.002Z,23.99
2022-09-26T06:43:47.854Z,23.99
2022-09-26T06:46:15.631Z,23.90
2022-09-26T06:48:42.930Z,23.82
2022-09-26T06:51:13.634Z,23.80
2022-09-26T06:53:40.932Z,23.76
2022-09-26T06:56:08.441Z,23.74
2022-09-26T06:58:35.501Z,23.67
2022-09-26T07:01:03.159Z,23.67
2022-09-26T07:03:30.350Z,23.68
2022-09-26T07:05:58.368Z,23.67
2022-09-26T07:08:50.139Z,23.68
2022-09-26T07:14:02.365Z,23.66
2022-09-26T07:16:29.828Z,23.67
2022-09-26T07:18:57.501Z,23.62
2022-09-26T07:21:24.904Z,23.56
2022-09-26T07:24:05.382Z,23.51
2022-09-26T07:26:32.450Z,23.38
2022-09-26T07:28:59.384Z,23.30
2022-09-26T07:31:27.002Z,23.20
2022-09-26T07:33:54.305Z,23.10
2022-09-26T07:36:21.431Z,22.99
2022-09-26T07:38:48.830Z,22.91
2022-09-26T07:41:16.884Z,22.85
2022-09-26T07:46:49.566Z,22.85
2022-09-26T07:49:35.186Z,22.93
2022-09-26T07:52:02.371Z,23.00
2022-09-26T07:54:29.420Z,23.08
2022-09-26T07:56:56.410Z,23.14
2022-09-26T07:59:23.488Z,23.23
2022-09-26T08:01:53.196Z,23.23
2022-09-26T08:04:20.585Z,23.19
2022-09-26T08:06:47.607Z,23.20
2022-09-26T08:09:15.398Z,23.24
2022-09-26T08:11:42.876Z,23.24
2022-09-26T08:14:10.213Z,23.20
2022-09-26T08:16:41.765Z,23.18
2022-09-26T08:19:12.980Z,23.26
2022-09-26T08:21:39.957Z,23.33
2022-09-26T08:24:07.112Z,23.42
2022-09-26T08:26:34.151Z,23.50
2022-09-26T08:29:02.366Z,23.55
2022-09-26T08:31:29.493Z,23.58
2022-09-26T08:33:56.972Z,23.65
2022-09-26T08:36:23.916Z,23.72
2022-09-26T08:38:51.111Z,23.80
2022-09-26T08:41:47.726Z,23.92
2022-09-26T08:44:44.301Z,24.09
2022-09-26T08:47:30.131Z,24.29
2022-09-26T08:50:15.120Z,24.49
2022-09-26T08:52:57.166Z,24.66
2022-09-26T08:55:31.821Z,24.76
2022-09-26T08:58:01.789Z,24.61
2022-09-26T09:00:32.905Z,24.63
2022-09-26T09:03:10.554Z,24.75
2022-09-26T09:05:42.398Z,24.87
2022-09-26T09:08:22.821Z,24.78
2022-09-26T09:11:16.909Z,24.64
2022-09-26T09:14:11.377Z,24.39
2022-09-26T09:16:45.153Z,24.20
2022-09-26T09:19:27.126Z,23.91
2022-09-26T09:22:25.615Z,23.75
2022-09-26T09:25:24.540Z,23.70
2022-09-26T09:28:18.287Z,23.78
2022-09-26T09:31:02.528Z,23.88
2022-09-26T09:33:39.804Z,23.88
2022-09-26T09:36:15.483Z,23.88
2022-09-26T09:38:46.246Z,23.89
2022-09-26T09:41:20.184Z,23.90
2022-09-26T09:43:54.811Z,23.93
2022-09-26T09:46:29.442Z,23.98
2022-09-26T09:49:08.966Z,23.94
2022-09-26T09:52:02.525Z,23.86
2022-09-26T09:54:49.234Z,23.88
2022-09-26T09:57:48.358Z,23.95
2022-09-26T10:00:17.189Z,23.94
2022-09-26T10:03:03.120Z,23.90
2022-09-26T10:05:45.552Z,23.92
2022-09-26T10:08:17.107Z,24.02
2022-09-26T10:11:09.480Z,24.11
2022-09-26T10:13:39.233Z,24.25
2022-09-26T10:16:08.505Z,24.35
2022-09-26T10:18:57.162Z,24.41
2022-09-26T10:21:35.828Z,24.34
2022-09-26T10:24:05.162Z,24.25
2022-09-26T10:26:35.866Z,24.15
2022-09-26T10:29:35.676Z,24.04
2022-09-26T10:32:04.452Z,24.04
2022-09-26T10:34:37.243Z,23.94
2022-09-26T10:37:26.149Z,23.96
2022-09-26T10:40:17.303Z,24.12
2022-09-26T10:42:47.453Z,24.44
2022-09-26T10:45:18.238Z,24.77
2022-09-26T10:47:51.124Z,25.03
2022-09-26T10:50:26.724Z,25.29
2022-09-26T10:53:14.581Z,25.55
2022-09-26T10:55:48.470Z,25.77
2022-09-26T10:58:19.982Z,25.74
2022-09-26T11:00:53.372Z,25.61
2022-09-26T11:03:24.739Z,25.64
2022-09-26T11:05:57.795Z,25.62
2022-09-26T11:08:30.445Z,25.54
2022-09-26T11:11:11.549Z,25.40
2022-09-26T11:13:46.698Z,25.26
2022-09-26T11:16:16.503Z,25.09
2022-09-26T11:18:52.262Z,25.05
2022-09-26T11:21:37.951Z,25.17
2022-09-26T11:24:15.164Z,25.33
2022-09-26T11:26:53.629Z,25.53
2022-09-26T11:29:43.025Z,25.60
2022-09-26T11:32:29.366Z,25.54
2022-09-26T11:35:02.671Z,25.46
2022-09-26T11:38:05.831Z,25.38
2022-09-26T11:40:47.889Z,25.31
2022-09-26T11:43:50.255Z,25.26
2022-09-26T11:46:27.695Z,25.25
2022-09-26T11:49:11.469Z,25.44
2022-09-26T11:52:04.183Z,25.71
2022-09-26T11:55:03.331Z,25.96
2022-09-26T11:57:57.843Z,26.02
2022-09-26T12:00:29.346Z,26.05
2022-09-26T12:03:14.972Z,25.98
2022-09-26T12:05:59.926Z,25.93
2022-09-26T12:08:41.096Z,25.92
2022-09-26T12:11:38.293Z,25.87
2022-09-26T12:14:53.800Z,25.76
2022-09-26T12:17:35.490Z,25.86
2022-09-26T12:20:17.315Z,25.91
2022-09-26T12:22:47.345Z,25.72
2022-09-26T12:25:30.735Z,25.65
2022-09-26T12:28:34.573Z,25.68
2022-09-26T12:31:19.795Z,25.73
2022-09-26T12:33:58.817Z,25.82
2022-09-26T12:36:48.192Z,25.98
2022-09-26T12:39:35.869Z,26.14
2022-09-26T12:42:11.379Z,26.34
2022-09-26T12:45:07.760Z,26.29
2022-09-26T12:47:51.022Z,26.15
2022-09-26T12:50:26.322Z,26.11
2022-09-26T12:53:10.469Z,26.22
2022-09-26T12:55:51.955Z,26.46
2022-09-26T12:58:43.995Z,26.60
2022-09-26T13:01:45.296Z,26.76
2022-09-26T13:04:54.772Z,26.93
2022-09-26T13:07:48.272Z,27.05
2022-09-26T13:10:37.053Z,27.07
2022-09-26T13:14:10.957Z,27.05
2022-09-26T13:16:49.367Z,27.06
2022-09-26T13:19:54.543Z,27.17
2022-09-26T13:22:46.188Z,27.35
2022-09-26T13:25:18.040Z,27.47
2022-09-26T13:27:54.836Z,27.69
2022-09-26T13:30:36.026Z,27.94
2022-09-26T13:33:26.014Z,28.37
2022-09-26T13:35:56.670Z,28.64
2022-09-26T13:38:45.420Z,28.77
2022-09-26T13:41:31.184Z,28.71
2022-09-26T13:44:19.959Z,28.52
2022-09-26T13:47:02.162Z,28.23
2022-09-26T13:49:43.175Z,28.25
2022-09-26T13:52:24.456Z,28.18
2022-09-26T13:55:12.889Z,28.23
2022-09-26T13:58:07.279Z,27.86
2022-09-26T14:00:41.159Z,27.81
2022-09-26T14:03:14.285Z,27.72
2022-09-26T14:05:48.055Z,27.79
2022-09-26T14:08:45.785Z,27.65
2022-09-26T14:11:32.956Z,27.32
2022-09-26T14:14:18.489Z,27.29
2022-09-26T14:16:53.353Z,27.22
2022-09-26T14:19:39.525Z,27.30
2022-09-26T14:22:26.471Z,27.23
2022-09-26T14:24:54.501Z,27.08
2022-09-26T14:27:21.463Z,26.87
2022-09-26T14:29:53.206Z,26.76
2022-09-26T14:32:27.572Z,26.75
2022-09-26T14:34:54.838Z,26.72
2022-09-26T14:37:24.803Z,26.76
2022-09-26T14:40:00.684Z,26.87
2022-09-26T14:42:33.919Z,26.98
2022-09-26T14:45:05.406Z,27.08
2022-09-26T14:47:55.580Z,27.27
2022-09-26T14:50:31.495Z,27.43
2022-09-26T14:53:03.115Z,27.54
2022-09-26T14:55:31.266Z,27.63
2022-09-26T14:58:38.123Z,27.68
2022-09-26T15:01:05.950Z,27.62
2022-09-26T15:03:34.919Z,27.55
2022-09-26T15:06:05.878Z,27.41
2022-09-26T15:08:39.301Z,27.21
2022-09-26T15:11:07.766Z,27.08
2022-09-26T15:13:37.270Z,27.00
2022-09-26T15:16:16.310Z,26.89
2022-09-26T15:19:00.466Z,26.78
2022-09-26T15:21:37.028Z,26.82
2022-09-26T15:24:22.127Z,26.83
2022-09-26T15:26:50.365Z,26.79
2022-09-26T15:29:17.687Z,26.74
2022-09-26T15:31:46.552Z,26.66
2022-09-26T15:34:21.655Z,26.81
2022-09-26T15:36:56.821Z,27.06
2022-09-26T15:39:33.329Z,26.98
2022-09-26T15:42:37.384Z,27.01
2022-09-26T15:45:27.836Z,26.80
2022-09-26T15:47:56.893Z,26.75
2022-09-26T15:50:32.073Z,26.70
2022-09-26T15:53:17.839Z,26.67
2022-09-26T15:56:05.591Z,26.77
2022-09-26T15:58:51.202Z,26.72
2022-09-26T16:01:24.122Z,26.63
2022-09-26T16:04:13.701Z,26.68
2022-09-26T16:06:54.876Z,26.71
2022-09-26T16:09:34.037Z,26.91
2022-09-26T16:12:22.820Z,27.13
2022-09-26T16:15:00.286Z,27.17
2022-09-26T16:17:37.734Z,27.08
2022-09-26T16:20:13.933Z,27.09
2022-09-26T16:22:46.040Z,27.18
2022-09-26T16:25:16.154Z,27.21
2022-09-26T16:27:43.624Z,27.27
2022-09-26T16:30:29.028Z,27.35
2022-09-26T16:33:13.872Z,27.62
2022-09-26T16:35:48.569Z,27.85
2022-09-26T16:38:25.675Z,27.98
2022-09-26T16:40:55.291Z,27.93
2022-09-26T16:43:29.014Z,27.92
2022-09-26T16:46:18.141Z,27.67
2022-09-26T16:48:51.048Z,27.67
2022-09-26T16:51:21.554Z,28.39
2022-09-26T16:54:08.928Z,29.20
2022-09-26T16:56:40.609Z,29.72
2022-09-26T16:59:26.359Z,29.86
2022-09-26T17:01:56.622Z,29.53
2022-09-26T17:04:36.397Z,28.92
2022-09-26T17:07:16.489Z,28.33
2022-09-26T17:09:44.408Z,27.98
2022-09-26T17:12:21.536Z,28.56
2022-09-26T17:14:52.141Z,28.97
2022-09-26T17:17:22.211Z,29.11
2022-09-26T17:19:56.832Z,29.01
2022-09-26T17:22:26.876Z,28.90
2022-09-26T17:24:54.634Z,28.52
2022-09-26T17:27:34.435Z,28.09
2022-09-26T17:30:03.676Z,27.98
2022-09-26T17:32:38.839Z,28.28
2022-09-26T17:35:29.941Z,28.82
2022-09-26T17:37:57.169Z,29.07
2022-09-26T17:40:26.608Z,28.61
2022-09-26T17:42:59.621Z,28.22
2022-09-26T17:45:35.374Z,27.91
2022-09-26T17:48:12.434Z,27.67
2022-09-26T17:50:40.121Z,27.37
2022-09-26T17:53:11.003Z,27.32
2022-09-26T17:55:38.396Z,27.35
2022-09-26T17:58:07.997Z,27.59
2022-09-26T18:00:37.814Z,28.10
2022-09-26T18:03:08.126Z,28.33
2022-09-26T18:05:38.548Z,28.09
2022-09-26T18:08:15.598Z,27.89
2022-09-26T18:10:50.423Z,27.72
2022-09-26T18:13:22.998Z,27.47
2022-09-26T18:15:52.400Z,27.22
2022-09-26T18:18:22.072Z,27.05
2022-09-26T18:20:50.266Z,26.97
2022-09-26T18:23:21.218Z,26.96
2022-09-26T18:25:50.911Z,26.86
2022-09-26T18:28:21.142Z,26.65
2022-09-26T18:30:56.915Z,26.37
2022-09-26T18:33:25.804Z,26.24
2022-09-26T18:35:53.488Z,26.12
2022-09-26T18:38:21.064Z,26.07
2022-09-26T18:40:55.353Z,26.05
2022-09-26T18:43:24.367Z,26.02
2022-09-26T18:45:52.171Z,25.88
2022-09-26T18:48:19.269Z,25.57
2022-09-26T18:50:47.274Z,25.45
2022-09-26T18:53:20.221Z,25.42
2022-09-26T18:56:06.034Z,25.48
2022-09-26T18:58:34.607Z,25.56
2022-09-26T19:01:05.802Z,25.62
2022-09-26T19:03:46.158Z,25.65
2022-09-26T19:06:25.059Z,25.67
2022-09-26T19:09:05.331Z,25.66
2022-09-26T19:11:35.291Z,25.62
2022-09-26T19:14:26.719Z,25.55
2022-09-26T19:16:54.525Z,25.44
2022-09-26T19:19:22.286Z,25.39
2022-09-26T19:21:55.682Z,25.32
2022-09-26T19:24:38.561Z,25.28
2022-09-26T19:27:15.440Z,25.25
2022-09-26T19:29:52.942Z,25.23
2022-09-26T19:32:31.859Z,25.18
2022-09-26T19:35:02.173Z,25.18
2022-09-26T19:37:29.247Z,25.14
2022-09-26T19:39:58.040Z,25.12
2022-09-26T19:42:26.611Z,25.11
2022-09-26T19:44:53.689Z,25.12
2022-09-26T19:47:22.366Z,25.07
2022-09-26T19:49:51.712Z,24.98
2022-09-26T19:52:21.159Z,24.86
2022-09-26T19:54:48.988Z,24.86
2022-09-26T19:57:21.294Z,24.88
2022-09-26T19:59:49.297Z,24.91
2022-09-26T20:02:18.907Z,24.91
2022-09-26T20:04:46.188Z,24.93
2022-09-26T20:07:18.716Z,24.90
2022-09-26T20:09:46.608Z,24.92
2022-09-26T20:12:14.295Z,24.87
2022-09-26T20:14:41.567Z,24.85
2022-09-26T20:17:11.745Z,24.82
2022-09-26T20:19:41.813Z,24.79
2022-09-26T20:22:15.413Z,24.78
2022-09-26T20:24:43.500Z,24.76
2022-09-26T20:27:18.162Z,24.70
2022-09-26T20:30:04.747Z,24.65
2022-09-26T20:32:31.981Z,24.61
2022-09-26T20:35:00.700Z,24.56
2022-09-26T20:37:32.852Z,24.54
2022-09-26T20:40:00.974Z,24.52
2022-09-26T20:42:33.567Z,24.47
2022-09-26T20:45:00.893Z,24.39
2022-09-26T20:47:27.975Z,24.35
2022-09-26T20:50:00.606Z,24.38
2022-09-26T20:52:29.601Z,24.40
2022-09-26T20:54:57.609Z,24.39
2022-09-26T20:57:25.013Z,24.37
2022-09-26T20:59:52.457Z,24.36
2022-09-26T21:02:32.555Z,24.29
2022-09-26T21:05:01.656Z,24.25
2022-09-26T21:07:31.495Z,24.26
2022-09-26T21:09:59.261Z,24.24
2022-09-26T21:12:26.240Z,24.27
2022-09-26T21:14:53.204Z,24.25
2022-09-26T21:17:28.910Z,24.26
2022-09-26T21:19:56.235Z,24.29
2022-09-26T21:22:27.157Z,24.29
2022-09-26T21:24:54.900Z,24.36
2022-09-26T21:27:21.906Z,24.38
2022-09-26T21:29:48.907Z,24.41
2022-09-26T21:32:19.675Z,24.42
2022-09-26T21:35:07.208Z,24.44
2022-09-26T21:37:35.156Z,24.47
2022-09-26T21:40:02.827Z,24.53
2022-09-26T21:42:29.884Z,24.63
2022-09-26T21:45:01.642Z,24.65
2022-09-26T21:47:28.642Z,24.64
2022-09-26T21:49:55.701Z,24.66
2022-09-26T21:52:28.848Z,24.68
2022-09-26T21:54:58.280Z,24.71
2022-09-26T21:57:31.930Z,24.76
2022-09-26T21:59:58.776Z,24.79
2022-09-26T22:02:26.265Z,24.80
2022-09-26T22:04:53.529Z,24.85
2022-09-26T22:07:20.992Z,24.80
2022-09-26T22:09:48.092Z,24.73
2022-09-26T22:12:15.034Z,24.74
2022-09-26T22:14:42.096Z,24.73
2022-09-26T22:17:09.195Z,24.72
2022-09-26T22:19:36.373Z,24.76
2022-09-26T22:22:03.513Z,24.79
2022-09-26T22:24:30.664Z,24.83
2022-09-26T22:29:24.627Z,24.92
2022-09-26T22:31:52.116Z,24.87
2022-09-26T22:34:20.394Z,24.81
2022-09-26T22:36:47.344Z,24.76
2022-09-26T22:39:14.411Z,24.75
2022-09-26T22:41:41.470Z,24.73
2022-09-26T22:44:08.614Z,24.70
2022-09-26T22:46:36.572Z,24.63
2022-09-26T22:49:03.662Z,24.57
2022-09-26T22:51:30.713Z,24.50
2022-09-26T22:53:57.796Z,24.49
2022-09-26T22:56:24.900Z,24.49
2022-09-26T22:58:52.691Z,24.49
2022-09-26T23:01:28.191Z,24.46
2022-09-26T23:03:55.731Z,24.46
2022-09-26T23:06:23.866Z,24.47
2022-09-26T23:08:51.234Z,24.47
2022-09-26T23:11:19.379Z,24.52
2022-09-26T23:13:47.088Z,24.52
2022-09-26T23:16:17.502Z,24.49
2022-09-26T23:18:44.989Z,24.44
2022-09-26T23:21:13.467Z,24.39
2022-09-26T23:23:44.024Z,24.38
2022-09-26T23:26:23.514Z,24.39
2022-09-26T23:28:52.427Z,24.35
2022-09-26T23:31:20.298Z,24.30
2022-09-26T23:33:48.029Z,24.31
2022-09-26T23:36:15.519Z,24.35
2022-09-26T23:38:42.614Z,24.37
2022-09-26T23:41:11.268Z,24.41
2022-09-26T23:43:39.031Z,24.42
2022-09-26T23:46:06.500Z,24.41
2022-09-26T23:48:34.131Z,24.41
2022-09-26T23:51:01.549Z,24.43
2022-09-26T23:53:28.828Z,24.43
2022-09-26T23:56:06.102Z,24.42
2022-09-26T23:58:33.586Z,24.38
